sensor_id;sensor_type;location;lat;lon;timestamp;P1;durP1;ratioP1;P2;durP2;ratioP2
68319;SDS011;55168;51.120;17.024;2022-09-09T00:00:00;12.1;;;10.8;;
68319;SDS011;55168;51.120;17.024;2022-09-09T00:02:08;12.0;;;10.8;;
68319;SDS011;55168;51.120;17.024;2022-09-09T00:03:08;12.0;;;10.8;;
68319;SDS011;55168;51.120;17.024;2022-09-09T00:04:08;12.0;;;10.8;;
68319;SDS011;55168;51.120;17.024;2022-09-09T00:06:13;14.6;;;11.9;;
68319;SDS011;55168;51.120;17.024;2022-09-09T00:08:02;14.6;;;11.9;;
68319;SDS011;55168;51.120;17.024;2022-09-09T00:09:11;14.6;;;11.9;;
68319;SDS011;55168;51.120;17.024;2022-09-09T00:10:06;14.6;;;11.9;;
68319;SDS011;55168;51.120;17.024;2022-09-09T00:11:03;14.7;;;12.1;;
68319;SDS011;55168;51.120;17.024;2022-09-09T00:12:02;14.7;;;12.1;;
68319;SDS011;55168;51.120;17.024;2022-09-09T00:13:15;14.7;;;12.1;;
68319;SDS011;55168;51.120;17.024;2022-09-09T00:14:02;14.7;;;12.1;;
68319;SDS011;55168;51.120;17.024;2022-09-09T00:15:05;14.7;;;12.1;;
68319;SDS011;55168;51.120;17.024;2022-09-09T00:16:04;13.6;;;12.2;;
68319;SDS011;55168;51.120;17.024;2022-09-09T00:17:02;13.6;;;12.2;;
68319;SDS011;55168;51.120;17.024;2022-09-09T00:20:05;13.6;;;12.2;;
68319;SDS011;55168;51.120;17.024;2022-09-09T00:21:03;13.4;;;12.0;;
68319;SDS011;55168;51.120;17.024;2022-09-09T00:22:14;13.4;;;12.0;;
68319;SDS011;55168;51.120;17.024;2022-09-09T00:23:10;13.4;;;12.0;;
68319;SDS011;55168;51.120;17.024;2022-09-09T00:24:08;13.4;;;12.0;;
68319;SDS011;55168;51.120;17.024;2022-09-09T00:25:12;13.4;;;12.0;;
68319;SDS011;55168;51.120;17.024;2022-09-09T00:26:14;13.5;;;12.1;;
68319;SDS011;55168;51.120;17.024;2022-09-09T00:27:04;13.5;;;12.1;;
68319;SDS011;55168;51.120;17.024;2022-09-09T00:28:00;13.5;;;12.1;;
68319;SDS011;55168;51.120;17.024;2022-09-09T00:31:09;13.4;;;12.1;;
68319;SDS011;55168;51.120;17.024;2022-09-09T00:32:11;13.4;;;12.1;;
68319;SDS011;55168;51.120;17.024;2022-09-09T00:33:05;13.4;;;12.1;;
68319;SDS011;55168;51.120;17.024;2022-09-09T00:34:09;13.4;;;12.1;;
68319;SDS011;55168;51.120;17.024;2022-09-09T00:35:04;13.4;;;12.1;;
68319;SDS011;55168;51.120;17.024;2022-09-09T00:36:00;12.5;;;11.2;;
68319;SDS011;55168;51.120;17.024;2022-09-09T00:37:01;12.5;;;11.2;;
68319;SDS011;55168;51.120;17.024;2022-09-09T00:38:09;12.5;;;11.2;;
68319;SDS011;55168;51.120;17.024;2022-09-09T00:39:02;12.5;;;11.2;;
68319;SDS011;55168;51.120;17.024;2022-09-09T00:40:02;12.5;;;11.2;;
68319;SDS011;55168;51.120;17.024;2022-09-09T00:41:05;12.1;;;10.9;;
68319;SDS011;55168;51.120;17.024;2022-09-09T00:46:10;12.2;;;11.0;;
68319;SDS011;55168;51.120;17.024;2022-09-09T00:47:29;12.2;;;11.0;;
68319;SDS011;55168;51.120;17.024;2022-09-09T00:48:06;12.2;;;11.0;;
68319;SDS011;55168;51.120;17.024;2022-09-09T00:49:09;12.2;;;11.0;;
68319;SDS011;55168;51.120;17.024;2022-09-09T00:50:03;12.2;;;11.0;;
68319;SDS011;55168;51.120;17.024;2022-09-09T00:51:05;11.9;;;10.1;;
68319;SDS011;55168;51.120;17.024;2022-09-09T00:52:21;11.9;;;10.1;;
68319;SDS011;55168;51.120;17.024;2022-09-09T00:53:15;11.9;;;10.1;;
68319;SDS011;55168;51.120;17.024;2022-09-09T00:54:08;11.9;;;10.1;;
68319;SDS011;55168;51.120;17.024;2022-09-09T00:55:07;11.9;;;10.1;;
68319;SDS011;55168;51.120;17.024;2022-09-09T00:56:06;11.4;;;10.4;;
68319;SDS011;55168;51.120;17.024;2022-09-09T00:58:00;11.4;;;10.4;;
68319;SDS011;55168;51.120;17.024;2022-09-09T00:59:06;11.4;;;10.4;;
68319;SDS011;55168;51.120;17.024;2022-09-09T01:01:04;10.9;;;9.9;;
68319;SDS011;55168;51.120;17.024;2022-09-09T01:02:00;10.9;;;9.9;;
68319;SDS011;55168;51.120;17.024;2022-09-09T01:04:00;10.9;;;9.9;;
68319;SDS011;55168;51.120;17.024;2022-09-09T01:05:06;10.9;;;9.9;;
68319;SDS011;55168;51.120;17.024;2022-09-09T01:06:11;11.4;;;9.8;;
68319;SDS011;55168;51.120;17.024;2022-09-09T01:07:12;11.4;;;9.8;;
68319;SDS011;55168;51.120;17.024;2022-09-09T01:08:01;11.4;;;9.8;;
68319;SDS011;55168;51.120;17.024;2022-09-09T01:10:04;11.4;;;9.8;;
68319;SDS011;55168;51.120;17.024;2022-09-09T01:11:00;10.8;;;9.7;;
68319;SDS011;55168;51.120;17.024;2022-09-09T01:13:02;10.8;;;9.7;;
68319;SDS011;55168;51.120;17.024;2022-09-09T01:14:14;10.8;;;9.7;;
68319;SDS011;55168;51.120;17.024;2022-09-09T01:15:08;10.8;;;9.7;;
68319;SDS011;55168;51.120;17.024;2022-09-09T01:16:03;11.3;;;10.1;;
68319;SDS011;55168;51.120;17.024;2022-09-09T01:17:07;11.3;;;10.1;;
68319;SDS011;55168;51.120;17.024;2022-09-09T01:18:04;11.3;;;10.1;;
68319;SDS011;55168;51.120;17.024;2022-09-09T01:19:00;11.3;;;10.1;;
68319;SDS011;55168;51.120;17.024;2022-09-09T01:20:11;11.3;;;10.1;;
68319;SDS011;55168;51.120;17.024;2022-09-09T01:21:09;11.5;;;10.4;;
68319;SDS011;55168;51.120;17.024;2022-09-09T01:22:06;11.5;;;10.4;;
68319;SDS011;55168;51.120;17.024;2022-09-09T01:24:08;11.5;;;10.4;;
68319;SDS011;55168;51.120;17.024;2022-09-09T01:26:12;11.2;;;10.0;;
68319;SDS011;55168;51.120;17.024;2022-09-09T01:27:02;11.2;;;10.0;;
68319;SDS011;55168;51.120;17.024;2022-09-09T01:28:03;11.2;;;10.0;;
68319;SDS011;55168;51.120;17.024;2022-09-09T01:29:00;11.2;;;10.0;;
68319;SDS011;55168;51.120;17.024;2022-09-09T01:30:00;11.2;;;10.0;;
68319;SDS011;55168;51.120;17.024;2022-09-09T01:31:00;11.3;;;10.3;;
68319;SDS011;55168;51.120;17.024;2022-09-09T01:32:35;11.3;;;10.3;;
68319;SDS011;55168;51.120;17.024;2022-09-09T01:33:00;11.3;;;10.3;;
68319;SDS011;55168;51.120;17.024;2022-09-09T01:34:00;11.3;;;10.3;;
68319;SDS011;55168;51.120;17.024;2022-09-09T01:35:01;11.3;;;10.3;;
68319;SDS011;55168;51.120;17.024;2022-09-09T01:36:04;11.4;;;10.2;;
68319;SDS011;55168;51.120;17.024;2022-09-09T01:37:07;11.4;;;10.2;;
68319;SDS011;55168;51.120;17.024;2022-09-09T01:38:00;11.4;;;10.2;;
68319;SDS011;55168;51.120;17.024;2022-09-09T01:39:00;11.4;;;10.2;;
68319;SDS011;55168;51.120;17.024;2022-09-09T01:40:00;11.4;;;10.2;;
68319;SDS011;55168;51.120;17.024;2022-09-09T01:41:00;11.8;;;10.6;;
68319;SDS011;55168;51.120;17.024;2022-09-09T01:42:00;11.8;;;10.6;;
68319;SDS011;55168;51.120;17.024;2022-09-09T01:43:00;11.8;;;10.6;;
68319;SDS011;55168;51.120;17.024;2022-09-09T01:44:00;11.8;;;10.6;;
68319;SDS011;55168;51.120;17.024;2022-09-09T01:45:00;11.8;;;10.6;;
68319;SDS011;55168;51.120;17.024;2022-09-09T01:46:01;12.8;;;11.6;;
68319;SDS011;55168;51.120;17.024;2022-09-09T01:47:00;12.8;;;11.6;;
68319;SDS011;55168;51.120;17.024;2022-09-09T01:48:00;12.8;;;11.6;;
68319;SDS011;55168;51.120;17.024;2022-09-09T01:49:00;12.8;;;11.6;;
68319;SDS011;55168;51.120;17.024;2022-09-09T01:50:00;12.8;;;11.6;;
68319;SDS011;55168;51.120;17.024;2022-09-09T01:51:00;13.0;;;11.8;;
68319;SDS011;55168;51.120;17.024;2022-09-09T01:52:00;13.0;;;11.8;;
68319;SDS011;55168;51.120;17.024;2022-09-09T01:53:01;13.0;;;11.8;;
68319;SDS011;55168;51.120;17.024;2022-09-09T01:54:00;13.0;;;11.8;;
68319;SDS011;55168;51.120;17.024;2022-09-09T01:55:00;13.0;;;11.8;;
68319;SDS011;55168;51.120;17.024;2022-09-09T01:56:10;13.1;;;11.9;;
68319;SDS011;55168;51.120;17.024;2022-09-09T01:59:07;13.1;;;11.9;;
68319;SDS011;55168;51.120;17.024;2022-09-09T02:00:05;13.1;;;11.9;;
68319;SDS011;55168;51.120;17.024;2022-09-09T02:01:07;13.3;;;12.1;;
68319;SDS011;55168;51.120;17.024;2022-09-09T02:02:11;13.3;;;12.1;;
68319;SDS011;55168;51.120;17.024;2022-09-09T02:03:08;13.3;;;12.1;;
68319;SDS011;55168;51.120;17.024;2022-09-09T02:04:02;13.3;;;12.1;;
68319;SDS011;55168;51.120;17.024;2022-09-09T02:05:09;13.3;;;12.1;;
68319;SDS011;55168;51.120;17.024;2022-09-09T02:06:05;12.6;;;11.5;;
68319;SDS011;55168;51.120;17.024;2022-09-09T02:07:04;12.6;;;11.5;;
68319;SDS011;55168;51.120;17.024;2022-09-09T02:08:05;12.6;;;11.5;;
68319;SDS011;55168;51.120;17.024;2022-09-09T02:09:04;12.6;;;11.5;;
68319;SDS011;55168;51.120;17.024;2022-09-09T02:10:08;12.6;;;11.5;;
68319;SDS011;55168;51.120;17.024;2022-09-09T02:11:07;13.5;;;12.2;;
68319;SDS011;55168;51.120;17.024;2022-09-09T02:12:11;13.5;;;12.2;;
68319;SDS011;55168;51.120;17.024;2022-09-09T02:13:07;13.5;;;12.2;;
68319;SDS011;55168;51.120;17.024;2022-09-09T02:14:02;13.5;;;12.2;;
68319;SDS011;55168;51.120;17.024;2022-09-09T02:15:05;13.5;;;12.2;;
68319;SDS011;55168;51.120;17.024;2022-09-09T02:16:12;13.7;;;11.8;;
68319;SDS011;55168;51.120;17.024;2022-09-09T02:17:03;13.7;;;11.8;;
68319;SDS011;55168;51.120;17.024;2022-09-09T02:18:01;13.7;;;11.8;;
68319;SDS011;55168;51.120;17.024;2022-09-09T02:20:05;13.7;;;11.8;;
68319;SDS011;55168;51.120;17.024;2022-09-09T02:21:02;13.4;;;11.9;;
68319;SDS011;55168;51.120;17.024;2022-09-09T02:22:00;13.4;;;11.9;;
68319;SDS011;55168;51.120;17.024;2022-09-09T02:23:00;13.4;;;11.9;;
68319;SDS011;55168;51.120;17.024;2022-09-09T02:24:02;13.4;;;11.9;;
68319;SDS011;55168;51.120;17.024;2022-09-09T02:25:00;13.4;;;11.9;;
68319;SDS011;55168;51.120;17.024;2022-09-09T02:26:01;14.0;;;12.5;;
68319;SDS011;55168;51.120;17.024;2022-09-09T02:27:03;14.0;;;12.5;;
68319;SDS011;55168;51.120;17.024;2022-09-09T02:28:01;14.0;;;12.5;;
68319;SDS011;55168;51.120;17.024;2022-09-09T02:29:03;14.0;;;12.5;;
68319;SDS011;55168;51.120;17.024;2022-09-09T02:30:01;14.0;;;12.5;;
68319;SDS011;55168;51.120;17.024;2022-09-09T02:31:00;14.2;;;12.5;;
68319;SDS011;55168;51.120;17.024;2022-09-09T02:32:03;14.2;;;12.5;;
68319;SDS011;55168;51.120;17.024;2022-09-09T02:33:02;14.2;;;12.5;;
68319;SDS011;55168;51.120;17.024;2022-09-09T02:34:01;14.2;;;12.5;;
68319;SDS011;55168;51.120;17.024;2022-09-09T02:35:03;14.2;;;12.5;;
68319;SDS011;55168;51.120;17.024;2022-09-09T02:36:01;14.9;;;12.3;;
68319;SDS011;55168;51.120;17.024;2022-09-09T02:37:01;14.9;;;12.3;;
68319;SDS011;55168;51.120;17.024;2022-09-09T02:38:03;14.9;;;12.3;;
68319;SDS011;55168;51.120;17.024;2022-09-09T02:39:00;14.9;;;12.3;;
68319;SDS011;55168;51.120;17.024;2022-09-09T02:40:00;14.9;;;12.3;;
68319;SDS011;55168;51.120;17.024;2022-09-09T02:41:00;14.5;;;12.3;;
68319;SDS011;55168;51.120;17.024;2022-09-09T02:42:00;14.5;;;12.3;;
68319;SDS011;55168;51.120;17.024;2022-09-09T02:43:00;14.5;;;12.3;;
68319;SDS011;55168;51.120;17.024;2022-09-09T02:44:00;14.5;;;12.3;;
68319;SDS011;55168;51.120;17.024;2022-09-09T02:45:00;14.5;;;12.3;;
68319;SDS011;55168;51.120;17.024;2022-09-09T02:46:07;14.4;;;12.9;;
68319;SDS011;55168;51.120;17.024;2022-09-09T02:47:10;14.4;;;12.9;;
68319;SDS011;55168;51.120;17.024;2022-09-09T02:49:03;14.4;;;12.9;;
68319;SDS011;55168;51.120;17.024;2022-09-09T02:50:12;14.3;;;12.8;;
68319;SDS011;55168;51.120;17.024;2022-09-09T02:51:08;14.3;;;12.8;;
68319;SDS011;55168;51.120;17.024;2022-09-09T02:52:04;14.3;;;12.8;;
68319;SDS011;55168;51.120;17.024;2022-09-09T02:53:14;14.3;;;12.8;;
68319;SDS011;55168;51.120;17.024;2022-09-09T02:54:10;14.3;;;12.8;;
68319;SDS011;55168;51.120;17.024;2022-09-09T02:55:06;14.3;;;12.8;;
68319;SDS011;55168;51.120;17.024;2022-09-09T02:56:06;13.4;;;12.1;;
68319;SDS011;55168;51.120;17.024;2022-09-09T02:57:08;13.4;;;12.1;;
68319;SDS011;55168;51.120;17.024;2022-09-09T02:58:01;13.4;;;12.1;;
68319;SDS011;55168;51.120;17.024;2022-09-09T02:59:02;13.4;;;12.1;;
68319;SDS011;55168;51.120;17.024;2022-09-09T03:00:00;13.4;;;12.1;;
68319;SDS011;55168;51.120;17.024;2022-09-09T03:01:00;14.6;;;13.0;;
68319;SDS011;55168;51.120;17.024;2022-09-09T03:02:00;14.6;;;13.0;;
68319;SDS011;55168;51.120;17.024;2022-09-09T03:03:00;14.6;;;13.0;;
68319;SDS011;55168;51.120;17.024;2022-09-09T03:04:00;14.6;;;13.0;;
68319;SDS011;55168;51.120;17.024;2022-09-09T03:05:00;14.6;;;13.0;;
68319;SDS011;55168;51.120;17.024;2022-09-09T03:06:00;13.3;;;12.0;;
68319;SDS011;55168;51.120;17.024;2022-09-09T03:07:00;13.3;;;12.0;;
68319;SDS011;55168;51.120;17.024;2022-09-09T03:08:00;13.3;;;12.0;;
68319;SDS011;55168;51.120;17.024;2022-09-09T03:09:00;13.3;;;12.0;;
68319;SDS011;55168;51.120;17.024;2022-09-09T03:10:00;13.3;;;12.0;;
68319;SDS011;55168;51.120;17.024;2022-09-09T03:11:00;16.2;;;13.9;;
68319;SDS011;55168;51.120;17.024;2022-09-09T03:12:00;16.2;;;13.9;;
68319;SDS011;55168;51.120;17.024;2022-09-09T03:13:00;16.2;;;13.9;;
68319;SDS011;55168;51.120;17.024;2022-09-09T03:14:00;16.2;;;13.9;;
68319;SDS011;55168;51.120;17.024;2022-09-09T03:15:00;16.2;;;13.9;;
68319;SDS011;55168;51.120;17.024;2022-09-09T03:16:00;19.7;;;14.3;;
68319;SDS011;55168;51.120;17.024;2022-09-09T03:17:00;19.7;;;14.3;;
68319;SDS011;55168;51.120;17.024;2022-09-09T03:18:00;19.7;;;14.3;;
68319;SDS011;55168;51.120;17.024;2022-09-09T03:19:00;19.7;;;14.3;;
68319;SDS011;55168;51.120;17.024;2022-09-09T03:20:00;19.7;;;14.3;;
68319;SDS011;55168;51.120;17.024;2022-09-09T03:21:00;17.2;;;15.2;;
68319;SDS011;55168;51.120;17.024;2022-09-09T03:22:00;17.2;;;15.2;;
68319;SDS011;55168;51.120;17.024;2022-09-09T03:23:00;17.2;;;15.2;;
68319;SDS011;55168;51.120;17.024;2022-09-09T03:24:00;17.2;;;15.2;;
68319;SDS011;55168;51.120;17.024;2022-09-09T03:25:00;17.2;;;15.2;;
68319;SDS011;55168;51.120;17.024;2022-09-09T03:26:00;16.1;;;14.1;;
68319;SDS011;55168;51.120;17.024;2022-09-09T03:27:00;16.1;;;14.1;;
68319;SDS011;55168;51.120;17.024;2022-09-09T03:28:01;16.1;;;14.1;;
68319;SDS011;55168;51.120;17.024;2022-09-09T03:29:00;16.1;;;14.1;;
68319;SDS011;55168;51.120;17.024;2022-09-09T03:30:00;16.1;;;14.1;;
68319;SDS011;55168;51.120;17.024;2022-09-09T03:31:02;16.2;;;14.5;;
68319;SDS011;55168;51.120;17.024;2022-09-09T03:32:00;16.2;;;14.5;;
68319;SDS011;55168;51.120;17.024;2022-09-09T03:33:00;16.2;;;14.5;;
68319;SDS011;55168;51.120;17.024;2022-09-09T03:34:00;16.2;;;14.5;;
68319;SDS011;55168;51.120;17.024;2022-09-09T03:35:00;16.2;;;14.5;;
68319;SDS011;55168;51.120;17.024;2022-09-09T03:36:00;15.3;;;13.7;;
68319;SDS011;55168;51.120;17.024;2022-09-09T03:37:00;15.3;;;13.7;;
68319;SDS011;55168;51.120;17.024;2022-09-09T03:38:00;15.3;;;13.7;;
68319;SDS011;55168;51.120;17.024;2022-09-09T03:39:00;15.3;;;13.7;;
68319;SDS011;55168;51.120;17.024;2022-09-09T03:40:00;15.3;;;13.7;;
68319;SDS011;55168;51.120;17.024;2022-09-09T03:41:00;14.8;;;13.4;;
68319;SDS011;55168;51.120;17.024;2022-09-09T03:42:00;14.8;;;13.4;;
68319;SDS011;55168;51.120;17.024;2022-09-09T03:43:00;14.8;;;13.4;;
68319;SDS011;55168;51.120;17.024;2022-09-09T03:44:00;14.8;;;13.4;;
68319;SDS011;55168;51.120;17.024;2022-09-09T03:45:00;14.8;;;13.4;;
68319;SDS011;55168;51.120;17.024;2022-09-09T03:46:00;14.0;;;12.6;;
68319;SDS011;55168;51.120;17.024;2022-09-09T03:47:00;14.0;;;12.6;;
68319;SDS011;55168;51.120;17.024;2022-09-09T03:48:00;14.0;;;12.6;;
68319;SDS011;55168;51.120;17.024;2022-09-09T03:49:00;14.0;;;12.6;;
68319;SDS011;55168;51.120;17.024;2022-09-09T03:50:00;14.0;;;12.6;;
68319;SDS011;55168;51.120;17.024;2022-09-09T03:51:00;12.8;;;11.6;;
68319;SDS011;55168;51.120;17.024;2022-09-09T03:52:00;12.8;;;11.6;;
68319;SDS011;55168;51.120;17.024;2022-09-09T03:53:01;12.8;;;11.6;;
68319;SDS011;55168;51.120;17.024;2022-09-09T03:54:00;12.8;;;11.6;;
68319;SDS011;55168;51.120;17.024;2022-09-09T03:55:00;12.8;;;11.6;;
68319;SDS011;55168;51.120;17.024;2022-09-09T03:56:00;13.6;;;12.2;;
68319;SDS011;55168;51.120;17.024;2022-09-09T03:57:00;13.6;;;12.2;;
68319;SDS011;55168;51.120;17.024;2022-09-09T03:58:00;13.6;;;12.2;;
68319;SDS011;55168;51.120;17.024;2022-09-09T03:59:00;13.6;;;12.2;;
68319;SDS011;55168;51.120;17.024;2022-09-09T04:00:05;13.6;;;12.2;;
68319;SDS011;55168;51.120;17.024;2022-09-09T04:01:02;13.8;;;12.4;;
68319;SDS011;55168;51.120;17.024;2022-09-09T04:02:00;13.8;;;12.4;;
68319;SDS011;55168;51.120;17.024;2022-09-09T04:03:00;13.8;;;12.4;;
68319;SDS011;55168;51.120;17.024;2022-09-09T04:04:00;13.8;;;12.4;;
68319;SDS011;55168;51.120;17.024;2022-09-09T04:05:00;13.8;;;12.4;;
68319;SDS011;55168;51.120;17.024;2022-09-09T04:06:01;13.9;;;12.4;;
68319;SDS011;55168;51.120;17.024;2022-09-09T04:07:00;13.9;;;12.4;;
68319;SDS011;55168;51.120;17.024;2022-09-09T04:08:00;13.9;;;12.4;;
68319;SDS011;55168;51.120;17.024;2022-09-09T04:09:00;13.9;;;12.4;;
68319;SDS011;55168;51.120;17.024;2022-09-09T04:10:00;13.9;;;12.4;;
68319;SDS011;55168;51.120;17.024;2022-09-09T04:11:00;14.5;;;12.4;;
68319;SDS011;55168;51.120;17.024;2022-09-09T04:12:00;14.5;;;12.4;;
68319;SDS011;55168;51.120;17.024;2022-09-09T04:13:00;14.5;;;12.4;;
68319;SDS011;55168;51.120;17.024;2022-09-09T04:14:00;14.5;;;12.4;;
68319;SDS011;55168;51.120;17.024;2022-09-09T04:15:00;14.5;;;12.4;;
68319;SDS011;55168;51.120;17.024;2022-09-09T04:16:01;13.5;;;12.2;;
68319;SDS011;55168;51.120;17.024;2022-09-09T04:17:00;13.5;;;12.2;;
68319;SDS011;55168;51.120;17.024;2022-09-09T04:18:00;13.5;;;12.2;;
68319;SDS011;55168;51.120;17.024;2022-09-09T04:19:00;13.5;;;12.2;;
68319;SDS011;55168;51.120;17.024;2022-09-09T04:20:00;13.6;;;12.2;;
68319;SDS011;55168;51.120;17.024;2022-09-09T04:21:00;13.6;;;12.2;;
68319;SDS011;55168;51.120;17.024;2022-09-09T04:22:00;13.6;;;12.2;;
68319;SDS011;55168;51.120;17.024;2022-09-09T04:23:00;13.6;;;12.2;;
68319;SDS011;55168;51.120;17.024;2022-09-09T04:24:00;13.6;;;12.2;;
68319;SDS011;55168;51.120;17.024;2022-09-09T04:25:00;13.3;;;11.9;;
68319;SDS011;55168;51.120;17.024;2022-09-09T04:26:01;13.3;;;11.9;;
68319;SDS011;55168;51.120;17.024;2022-09-09T04:27:00;13.3;;;11.9;;
68319;SDS011;55168;51.120;17.024;2022-09-09T04:28:00;13.3;;;11.9;;
68319;SDS011;55168;51.120;17.024;2022-09-09T04:29:00;13.3;;;11.9;;
68319;SDS011;55168;51.120;17.024;2022-09-09T04:30:00;12.6;;;11.4;;
68319;SDS011;55168;51.120;17.024;2022-09-09T04:31:09;12.6;;;11.4;;
68319;SDS011;55168;51.120;17.024;2022-09-09T04:32:00;12.6;;;11.4;;
68319;SDS011;55168;51.120;17.024;2022-09-09T04:33:00;12.6;;;11.4;;
68319;SDS011;55168;51.120;17.024;2022-09-09T04:34:00;12.6;;;11.4;;
68319;SDS011;55168;51.120;17.024;2022-09-09T04:35:00;13.8;;;12.4;;
68319;SDS011;55168;51.120;17.024;2022-09-09T04:36:00;13.8;;;12.4;;
68319;SDS011;55168;51.120;17.024;2022-09-09T04:37:00;13.8;;;12.4;;
68319;SDS011;55168;51.120;17.024;2022-09-09T04:38:00;13.8;;;12.4;;
68319;SDS011;55168;51.120;17.024;2022-09-09T04:39:00;13.8;;;12.4;;
68319;SDS011;55168;51.120;17.024;2022-09-09T04:40:00;13.4;;;12.1;;
68319;SDS011;55168;51.120;17.024;2022-09-09T04:41:00;13.4;;;12.1;;
68319;SDS011;55168;51.120;17.024;2022-09-09T04:42:00;13.4;;;12.1;;
68319;SDS011;55168;51.120;17.024;2022-09-09T04:43:01;13.4;;;12.1;;
68319;SDS011;55168;51.120;17.024;2022-09-09T04:44:00;13.4;;;12.1;;
68319;SDS011;55168;51.120;17.024;2022-09-09T04:45:00;11.7;;;10.5;;
68319;SDS011;55168;51.120;17.024;2022-09-09T04:46:00;11.7;;;10.5;;
68319;SDS011;55168;51.120;17.024;2022-09-09T04:47:00;11.7;;;10.5;;
68319;SDS011;55168;51.120;17.024;2022-09-09T04:48:00;11.7;;;10.5;;
68319;SDS011;55168;51.120;17.024;2022-09-09T04:49:00;11.7;;;10.5;;
68319;SDS011;55168;51.120;17.024;2022-09-09T04:50:00;10.3;;;9.3;;
68319;SDS011;55168;51.120;17.024;2022-09-09T04:51:03;10.3;;;9.3;;
68319;SDS011;55168;51.120;17.024;2022-09-09T04:52:00;10.3;;;9.3;;
68319;SDS011;55168;51.120;17.024;2022-09-09T04:53:01;10.3;;;9.3;;
68319;SDS011;55168;51.120;17.024;2022-09-09T04:54:00;10.3;;;9.3;;
68319;SDS011;55168;51.120;17.024;2022-09-09T04:55:00;9.2;;;8.3;;
68319;SDS011;55168;51.120;17.024;2022-09-09T04:56:02;9.2;;;8.3;;
68319;SDS011;55168;51.120;17.024;2022-09-09T04:57:00;9.2;;;8.3;;
68319;SDS011;55168;51.120;17.024;2022-09-09T04:58:08;9.2;;;8.3;;
68319;SDS011;55168;51.120;17.024;2022-09-09T04:59:00;9.2;;;8.3;;
68319;SDS011;55168;51.120;17.024;2022-09-09T05:00:00;8.7;;;7.8;;
68319;SDS011;55168;51.120;17.024;2022-09-09T05:01:04;8.7;;;7.8;;
68319;SDS011;55168;51.120;17.024;2022-09-09T05:02:00;8.7;;;7.8;;
68319;SDS011;55168;51.120;17.024;2022-09-09T05:03:03;8.7;;;7.8;;
68319;SDS011;55168;51.120;17.024;2022-09-09T05:04:00;8.7;;;7.8;;
68319;SDS011;55168;51.120;17.024;2022-09-09T05:05:00;8.2;;;7.4;;
68319;SDS011;55168;51.120;17.024;2022-09-09T05:06:09;8.2;;;7.4;;
68319;SDS011;55168;51.120;17.024;2022-09-09T05:07:00;8.2;;;7.4;;
68319;SDS011;55168;51.120;17.024;2022-09-09T05:08:00;8.2;;;7.4;;
68319;SDS011;55168;51.120;17.024;2022-09-09T05:09:00;8.2;;;7.4;;
68319;SDS011;55168;51.120;17.024;2022-09-09T05:10:00;7.7;;;6.9;;
68319;SDS011;55168;51.120;17.024;2022-09-09T05:11:00;7.7;;;6.9;;
68319;SDS011;55168;51.120;17.024;2022-09-09T05:12:00;7.7;;;6.9;;
68319;SDS011;55168;51.120;17.024;2022-09-09T05:13:00;7.7;;;6.9;;
68319;SDS011;55168;51.120;17.024;2022-09-09T05:14:00;7.7;;;6.9;;
68319;SDS011;55168;51.120;17.024;2022-09-09T05:15:00;7.4;;;6.7;;
68319;SDS011;55168;51.120;17.024;2022-09-09T05:16:00;7.4;;;6.7;;
68319;SDS011;55168;51.120;17.024;2022-09-09T05:17:00;7.4;;;6.7;;
68319;SDS011;55168;51.120;17.024;2022-09-09T05:18:00;7.4;;;6.7;;
68319;SDS011;55168;51.120;17.024;2022-09-09T05:19:00;7.4;;;6.7;;
68319;SDS011;55168;51.120;17.024;2022-09-09T05:20:00;6.5;;;5.9;;
68319;SDS011;55168;51.120;17.024;2022-09-09T05:21:00;6.5;;;5.9;;
68319;SDS011;55168;51.120;17.024;2022-09-09T05:22:00;6.5;;;5.9;;
68319;SDS011;55168;51.120;17.024;2022-09-09T05:23:00;6.5;;;5.9;;
68319;SDS011;55168;51.120;17.024;2022-09-09T05:24:00;6.5;;;5.9;;
68319;SDS011;55168;51.120;17.024;2022-09-09T05:25:00;6.6;;;5.7;;
68319;SDS011;55168;51.120;17.024;2022-09-09T05:26:00;6.6;;;5.7;;
68319;SDS011;55168;51.120;17.024;2022-09-09T05:27:00;6.6;;;5.7;;
68319;SDS011;55168;51.120;17.024;2022-09-09T05:28:00;6.6;;;5.7;;
68319;SDS011;55168;51.120;17.024;2022-09-09T05:29:00;6.6;;;5.7;;
68319;SDS011;55168;51.120;17.024;2022-09-09T05:30:00;6.2;;;5.6;;
68319;SDS011;55168;51.120;17.024;2022-09-09T05:31:03;6.2;;;5.6;;
68319;SDS011;55168;51.120;17.024;2022-09-09T05:32:00;6.2;;;5.6;;
68319;SDS011;55168;51.120;17.024;2022-09-09T05:33:00;6.2;;;5.6;;
68319;SDS011;55168;51.120;17.024;2022-09-09T05:34:00;6.2;;;5.6;;
68319;SDS011;55168;51.120;17.024;2022-09-09T05:35:00;8.0;;;5.3;;
68319;SDS011;55168;51.120;17.024;2022-09-09T05:36:05;8.0;;;5.3;;
68319;SDS011;55168;51.120;17.024;2022-09-09T05:37:00;8.0;;;5.3;;
68319;SDS011;55168;51.120;17.024;2022-09-09T05:38:00;8.0;;;5.3;;
68319;SDS011;55168;51.120;17.024;2022-09-09T05:39:00;8.0;;;5.3;;
68319;SDS011;55168;51.120;17.024;2022-09-09T05:40:00;5.5;;;5.0;;
68319;SDS011;55168;51.120;17.024;2022-09-09T05:41:01;5.5;;;5.0;;
68319;SDS011;55168;51.120;17.024;2022-09-09T05:42:00;5.5;;;5.0;;
68319;SDS011;55168;51.120;17.024;2022-09-09T05:43:01;5.5;;;5.0;;
68319;SDS011;55168;51.120;17.024;2022-09-09T05:44:00;5.5;;;5.0;;
68319;SDS011;55168;51.120;17.024;2022-09-09T05:45:00;9.2;;;4.9;;
68319;SDS011;55168;51.120;17.024;2022-09-09T05:46:02;9.2;;;4.9;;
68319;SDS011;55168;51.120;17.024;2022-09-09T05:47:00;9.2;;;4.9;;
68319;SDS011;55168;51.120;17.024;2022-09-09T05:48:00;9.2;;;4.9;;
68319;SDS011;55168;51.120;17.024;2022-09-09T05:49:00;9.2;;;4.9;;
68319;SDS011;55168;51.120;17.024;2022-09-09T05:50:00;8.2;;;4.9;;
68319;SDS011;55168;51.120;17.024;2022-09-09T05:51:01;8.2;;;4.9;;
68319;SDS011;55168;51.120;17.024;2022-09-09T05:52:00;8.2;;;4.9;;
68319;SDS011;55168;51.120;17.024;2022-09-09T05:53:00;8.2;;;4.9;;
68319;SDS011;55168;51.120;17.024;2022-09-09T05:54:00;8.2;;;4.9;;
68319;SDS011;55168;51.120;17.024;2022-09-09T05:55:00;5.7;;;4.4;;
68319;SDS011;55168;51.120;17.024;2022-09-09T05:56:01;5.7;;;4.4;;
68319;SDS011;55168;51.120;17.024;2022-09-09T05:57:00;5.7;;;4.4;;
68319;SDS011;55168;51.120;17.024;2022-09-09T05:58:00;5.7;;;4.4;;
68319;SDS011;55168;51.120;17.024;2022-09-09T05:59:00;5.7;;;4.4;;
68319;SDS011;55168;51.120;17.024;2022-09-09T06:00:00;5.0;;;4.2;;
68319;SDS011;55168;51.120;17.024;2022-09-09T06:01:01;5.0;;;4.2;;
68319;SDS011;55168;51.120;17.024;2022-09-09T06:02:00;5.0;;;4.2;;
68319;SDS011;55168;51.120;17.024;2022-09-09T06:03:00;5.0;;;4.2;;
68319;SDS011;55168;51.120;17.024;2022-09-09T06:04:00;5.0;;;4.2;;
68319;SDS011;55168;51.120;17.024;2022-09-09T06:05:00;4.5;;;4.1;;
68319;SDS011;55168;51.120;17.024;2022-09-09T06:06:01;4.5;;;4.1;;
68319;SDS011;55168;51.120;17.024;2022-09-09T06:07:00;4.5;;;4.1;;
68319;SDS011;55168;51.120;17.024;2022-09-09T06:08:00;4.5;;;4.1;;
68319;SDS011;55168;51.120;17.024;2022-09-09T06:09:00;4.5;;;4.1;;
68319;SDS011;55168;51.120;17.024;2022-09-09T06:10:00;4.5;;;4.1;;
68319;SDS011;55168;51.120;17.024;2022-09-09T06:11:01;4.6;;;3.9;;
68319;SDS011;55168;51.120;17.024;2022-09-09T06:12:00;4.6;;;3.9;;
68319;SDS011;55168;51.120;17.024;2022-09-09T06:13:00;4.6;;;3.9;;
68319;SDS011;55168;51.120;17.024;2022-09-09T06:14:00;4.6;;;3.9;;
68319;SDS011;55168;51.120;17.024;2022-09-09T06:15:00;4.6;;;3.9;;
68319;SDS011;55168;51.120;17.024;2022-09-09T06:16:00;5.3;;;4.0;;
68319;SDS011;55168;51.120;17.024;2022-09-09T06:17:00;5.3;;;4.0;;
68319;SDS011;55168;51.120;17.024;2022-09-09T06:18:00;5.3;;;4.0;;
68319;SDS011;55168;51.120;17.024;2022-09-09T06:19:01;5.3;;;4.0;;
68319;SDS011;55168;51.120;17.024;2022-09-09T06:20:00;5.3;;;4.0;;